createdAt,value
2022-09-12T00:00:52.504Z,96987.00
2022-09-12T00:03:19.321Z,96992.00
2022-09-12T00:05:47.908Z,96996.00
2022-09-12T00:08:14.948Z,96991.00
2022-09-12T00:10:44.083Z,96992.00
2022-09-12T00:13:11.994Z,96974.00
2022-09-12T00:15:43.411Z,96980.00
2022-09-12T00:18:15.144Z,96978.00
2022-09-12T00:20:47.025Z,96976.00
2022-09-12T00:23:14.817Z,96978.00
2022-09-12T00:25:43.911Z,96975.00
2022-09-12T00:28:11.851Z,96977.00
2022-09-12T00:30:43.320Z,96981.00
2022-09-12T00:33:11.348Z,96978.00
2022-09-12T00:35:47.704Z,96977.00
2022-09-12T00:38:15.944Z,96975.00
2022-09-12T00:40:43.749Z,96975.00
2022-09-12T00:43:40.879Z,96976.00
2022-09-12T00:46:43.196Z,96968.00
2022-09-12T00:49:55.878Z,96974.00
2022-09-12T00:52:39.564Z,96969.00
2022-09-12T00:55:17.171Z,96971.00
2022-09-12T00:57:50.767Z,96976.00
2022-09-12T01:00:23.021Z,96975.00
2022-09-12T01:02:56.269Z,96974.00
2022-09-12T01:05:24.876Z,96976.00
2022-09-12T01:07:53.059Z,96974.00
2022-09-12T01:10:20.482Z,96970.00
2022-09-12T01:12:48.423Z,96975.00
2022-09-12T01:15:15.596Z,96966.00
2022-09-12T01:18:12.143Z,96962.00
2022-09-12T01:20:49.348Z,96967.00
2022-09-12T01:24:14.593Z,96964.00
2022-09-12T01:30:46.197Z,96961.00
2022-09-12T01:33:37.194Z,96953.00
2022-09-12T01:36:17.758Z,96956.00
2022-09-12T01:38:53.280Z,96951.00
2022-09-12T01:41:43.552Z,96945.00
2022-09-12T01:44:30.875Z,96943.00
2022-09-12T01:47:33.652Z,96949.00
2022-09-12T01:51:03.788Z,96944.00
2022-09-12T01:54:04.046Z,96942.00
2022-09-12T01:57:03.312Z,96942.00
2022-09-12T01:59:39.655Z,96946.00
2022-09-12T02:02:14.801Z,96944.00
2022-09-12T02:05:10.377Z,96937.00
2022-09-12T02:07:44.267Z,96934.00
2022-09-12T02:10:20.598Z,96929.00
2022-09-12T02:13:18.558Z,96928.00
2022-09-12T02:16:00.448Z,96924.00
2022-09-12T02:18:29.960Z,96919.00
2022-09-12T02:20:57.445Z,96923.00
2022-09-12T02:23:29.332Z,96921.00
2022-09-12T02:26:02.752Z,96920.00
2022-09-12T02:28:38.666Z,96914.00
2022-09-12T02:31:27.646Z,96922.00
2022-09-12T02:34:19.911Z,96917.00
2022-09-12T02:37:13.014Z,96920.00
2022-09-12T02:39:44.513Z,96923.00
2022-09-12T02:42:12.603Z,96923.00
2022-09-12T02:48:29.125Z,96922.00
2022-09-12T02:50:56.694Z,96925.00
2022-09-12T02:53:25.562Z,96921.00
2022-09-12T02:55:52.837Z,96929.00
2022-09-12T02:58:25.084Z,96918.00
2022-09-12T03:01:22.464Z,96920.00
2022-09-12T03:04:24.488Z,96921.00
2022-09-12T03:07:12.546Z,96911.00
2022-09-12T03:10:08.990Z,96918.00
2022-09-12T03:13:14.116Z,96913.00
2022-09-12T03:16:21.389Z,96926.00
2022-09-12T03:19:03.143Z,96914.00
2022-09-12T03:22:04.233Z,96917.00
2022-09-12T03:24:48.467Z,96920.00
2022-09-12T03:27:49.535Z,96919.00
2022-09-12T03:30:16.447Z,96920.00
2022-09-12T03:32:47.174Z,96918.00
2022-09-12T03:35:18.780Z,96915.00
2022-09-12T03:37:49.474Z,96921.00
2022-09-12T03:40:16.704Z,96916.00
2022-09-12T03:42:43.501Z,96913.00
2022-09-12T03:45:11.166Z,96919.00
2022-09-12T03:47:38.116Z,96919.00
2022-09-12T03:50:06.438Z,96918.00
2022-09-12T03:52:33.506Z,96918.00
2022-09-12T03:55:00.250Z,96912.00
2022-09-12T03:57:27.028Z,96916.00
2022-09-12T03:59:53.972Z,96912.00
2022-09-12T04:02:21.174Z,96913.00
2022-09-12T04:04:48.759Z,96908.00
2022-09-12T04:07:16.626Z,96911.00
2022-09-12T04:09:43.801Z,96906.00
2022-09-12T04:12:10.910Z,96903.00
2022-09-12T04:14:38.450Z,96893.00
2022-09-12T04:17:05.454Z,96901.00
2022-09-12T04:19:32.304Z,96895.00
2022-09-12T04:21:59.090Z,96900.00
2022-09-12T04:24:25.898Z,96890.00
2022-09-12T04:26:52.670Z,96895.00
2022-09-12T04:29:19.408Z,96897.00
2022-09-12T04:31:46.248Z,96900.00
2022-09-12T04:34:13.056Z,96907.00
2022-09-12T04:36:39.812Z,96910.00
2022-09-12T04:39:07.691Z,96915.00
2022-09-12T04:41:37.799Z,96906.00
2022-09-12T04:44:16.035Z,96908.00
2022-09-12T04:46:47.469Z,96906.00
2022-09-12T04:49:19.296Z,96904.00
2022-09-12T04:51:46.557Z,96908.00
2022-09-12T04:54:17.976Z,96908.00
2022-09-12T04:56:48.861Z,96911.00
2022-09-12T04:59:18.241Z,96910.00
2022-09-12T05:01:45.142Z,96919.00
2022-09-12T05:04:15.469Z,96915.00
2022-09-12T05:06:42.938Z,96917.00
2022-09-12T05:09:12.600Z,96906.00
2022-09-12T05:14:30.884Z,96912.00
2022-09-12T05:17:00.675Z,96910.00
2022-09-12T05:19:29.152Z,96917.00
2022-09-12T05:21:56.264Z,96910.00
2022-09-12T05:24:23.058Z,96909.00
2022-09-12T05:26:49.971Z,96914.00
2022-09-12T05:29:16.688Z,96911.00
2022-09-12T05:31:43.417Z,96910.00
2022-09-12T05:34:10.466Z,96908.00
2022-09-12T05:36:38.484Z,96909.00
2022-09-12T05:39:05.700Z,96913.00
2022-09-12T05:41:34.283Z,96899.00
2022-09-12T05:44:06.777Z,96898.00
2022-09-12T05:46:40.774Z,96893.00
2022-09-12T05:49:11.195Z,96900.00
2022-09-12T05:51:42.382Z,96893.00
2022-09-12T05:54:13.911Z,96895.00
2022-09-12T05:56:42.919Z,96895.00
2022-09-12T05:59:19.712Z,96889.00
2022-09-12T06:01:47.785Z,96886.00
2022-09-12T06:04:14.957Z,96889.00
2022-09-12T06:06:48.639Z,96888.00
2022-09-12T06:09:16.763Z,96892.00
2022-09-12T06:11:44.817Z,96894.00
2022-09-12T06:14:14.556Z,96888.00
2022-09-12T06:16:41.499Z,96895.00
2022-09-12T06:19:18.663Z,96893.00
2022-09-12T06:21:47.532Z,96890.00
2022-09-12T06:24:14.390Z,96896.00
2022-09-12T06:26:41.522Z,96901.00
2022-09-12T06:29:09.303Z,96913.00
2022-09-12T06:31:38.733Z,96900.00
2022-09-12T06:34:09.602Z,96904.00
2022-09-12T06:36:54.403Z,96907.00
2022-09-12T06:39:22.683Z,96904.00
2022-09-12T06:41:51.939Z,96906.00
2022-09-12T06:44:21.829Z,96899.00
2022-09-12T06:46:48.987Z,96906.00
2022-09-12T06:49:15.872Z,96916.00
2022-09-12T06:51:43.047Z,96920.00
2022-09-12T06:54:16.818Z,96916.00
2022-09-12T06:56:44.234Z,96918.00
2022-09-12T06:59:11.007Z,96920.00
2022-09-12T07:01:38.040Z,96922.00
2022-09-12T07:04:05.178Z,96914.00
2022-09-12T07:06:38.391Z,96909.00
2022-09-12T07:09:08.244Z,96911.00
2022-09-12T07:11:38.005Z,96911.00
2022-09-12T07:14:07.681Z,96923.00
2022-09-12T07:16:37.861Z,96922.00
2022-09-12T07:19:07.214Z,96921.00
2022-09-12T07:21:39.449Z,96918.00
2022-09-12T07:24:08.664Z,96911.00
2022-09-12T07:26:35.660Z,96913.00
2022-09-12T07:31:49.620Z,96913.00
2022-09-12T07:34:17.463Z,96916.00
2022-09-12T07:36:44.200Z,96913.00
2022-09-12T07:39:11.212Z,96913.00
2022-09-12T07:41:38.011Z,96916.00
2022-09-12T07:44:06.649Z,96914.00
2022-09-12T07:46:33.533Z,96918.00
2022-09-12T07:49:01.623Z,96909.00
2022-09-12T07:51:30.488Z,96906.00
2022-09-12T07:54:01.219Z,96908.00
2022-09-12T07:56:32.038Z,96907.00
2022-09-12T07:59:10.712Z,96913.00
2022-09-12T08:01:50.582Z,96915.00
2022-09-12T08:04:40.084Z,96916.00
2022-09-12T08:07:55.887Z,96906.00
2022-09-12T08:10:51.486Z,96902.00
2022-09-12T08:13:55.225Z,96905.00
2022-09-12T08:16:56.574Z,96906.00
2022-09-12T08:19:48.502Z,96911.00
2022-09-12T08:22:41.687Z,96913.00
2022-09-12T08:25:52.779Z,96910.00
2022-09-12T08:28:56.026Z,96910.00
2022-09-12T08:31:57.043Z,96912.00
2022-09-12T08:34:59.076Z,96913.00
2022-09-12T08:38:03.534Z,96920.00
2022-09-12T08:40:30.343Z,96917.00
2022-09-12T08:44:01.980Z,96921.00
2022-09-12T08:46:47.197Z,96912.00
2022-09-12T08:49:24.035Z,96925.00
2022-09-12T08:51:51.991Z,96920.00
2022-09-12T08:54:26.856Z,96922.00
2022-09-12T08:57:01.826Z,96920.00
2022-09-12T08:59:38.942Z,96926.00
2022-09-12T09:02:47.007Z,96921.00
2022-09-12T09:06:11.382Z,96919.00
2022-09-12T09:09:00.218Z,96918.00
2022-09-12T09:11:54.594Z,96923.00
2022-09-12T09:15:08.784Z,96917.00
2022-09-12T09:17:47.960Z,96914.00
2022-09-12T09:20:55.091Z,96912.00
2022-09-12T09:23:40.481Z,96907.00
2022-09-12T09:26:14.636Z,96908.00
2022-09-12T09:28:52.995Z,96910.00
2022-09-12T09:31:22.982Z,96900.00
2022-09-12T09:33:53.995Z,96899.00
2022-09-12T09:36:30.255Z,96902.00
2022-09-12T09:39:27.275Z,96898.00
2022-09-12T09:42:40.318Z,96896.00
2022-09-12T09:45:20.959Z,96904.00
2022-09-12T09:48:01.621Z,96893.00
2022-09-12T09:50:29.229Z,96891.00
2022-09-12T09:52:58.924Z,96894.00
2022-09-12T09:55:40.499Z,96897.00
2022-09-12T09:58:07.245Z,96892.00
2022-09-12T10:00:39.130Z,96890.00
2022-09-12T10:03:14.812Z,96895.00
2022-09-12T10:06:08.158Z,96898.00
2022-09-12T10:08:37.111Z,96895.00
2022-09-12T10:11:28.300Z,96897.00
2022-09-12T10:13:57.778Z,96896.00
2022-09-12T10:16:28.887Z,96893.00
2022-09-12T10:18:59.106Z,96885.00
2022-09-12T10:21:31.811Z,96887.00
2022-09-12T10:24:25.060Z,96880.00
2022-09-12T10:27:06.311Z,96879.00
2022-09-12T10:29:47.750Z,96876.00
2022-09-12T10:32:50.979Z,96873.00
2022-09-12T10:35:25.538Z,96878.00
2022-09-12T10:38:07.067Z,96879.00
2022-09-12T10:40:42.541Z,96874.00
2022-09-12T10:43:55.896Z,96872.00
2022-09-12T10:46:29.308Z,96874.00
2022-09-12T10:49:22.523Z,96868.00
2022-09-12T10:51:51.050Z,96872.00
2022-09-12T10:54:22.321Z,96871.00
2022-09-12T10:57:14.474Z,96869.00
2022-09-12T11:00:17.950Z,96862.00
2022-09-12T11:10:54.532Z,96860.00
2022-09-12T11:14:17.799Z,96861.00
2022-09-12T11:17:52.259Z,96864.00
2022-09-12T11:24:28.793Z,96857.00
2022-09-12T11:27:24.502Z,96851.00
2022-09-12T11:30:14.984Z,96843.00
2022-09-12T11:33:01.379Z,96841.00
2022-09-12T11:35:31.670Z,96839.00
2022-09-12T11:38:05.012Z,96833.00
2022-09-12T11:40:50.742Z,96836.00
2022-09-12T11:43:40.499Z,96829.00
2022-09-12T11:46:38.229Z,96834.00
2022-09-12T11:49:13.741Z,96827.00
2022-09-12T11:51:54.169Z,96820.00
2022-09-12T11:55:01.204Z,96824.00
2022-09-12T11:57:41.581Z,96817.00
2022-09-12T12:00:26.519Z,96823.00
2022-09-12T12:03:09.510Z,96811.00
2022-09-12T12:06:06.084Z,96815.00
2022-09-12T12:08:40.912Z,96816.00
2022-09-12T12:11:08.999Z,96813.00
2022-09-12T12:13:45.985Z,96811.00
2022-09-12T12:16:21.372Z,96811.00
2022-09-12T12:18:55.895Z,96807.00
2022-09-12T12:21:42.964Z,96809.00
2022-09-12T12:24:09.585Z,96811.00
2022-09-12T12:26:39.563Z,96817.00
2022-09-12T12:29:18.008Z,96815.00
2022-09-12T12:32:21.339Z,96816.00
2022-09-12T12:34:48.522Z,96819.00
2022-09-12T12:37:29.580Z,96812.00
2022-09-12T12:40:10.195Z,96812.00
2022-09-12T12:42:36.888Z,96805.00
2022-09-12T12:45:09.347Z,96805.00
2022-09-12T12:47:39.302Z,96799.00
2022-09-12T12:50:20.558Z,96792.00
2022-09-12T12:52:50.020Z,96791.00
2022-09-12T12:55:38.965Z,96785.00
2022-09-12T12:58:08.127Z,96785.00
2022-09-12T13:00:39.913Z,96785.00
2022-09-12T13:03:06.812Z,96785.00
2022-09-12T13:05:47.886Z,96792.00
2022-09-12T13:08:17.289Z,96779.00
2022-09-12T13:11:28.396Z,96785.00
2022-09-12T13:14:07.482Z,96780.00
2022-09-12T13:16:40.411Z,96780.00
2022-09-12T13:19:32.418Z,96774.00
2022-09-12T13:22:07.765Z,96774.00
2022-09-12T13:24:47.042Z,96775.00
2022-09-12T13:27:23.180Z,96772.00
2022-09-12T13:29:50.851Z,96778.00
2022-09-12T13:32:18.893Z,96769.00
2022-09-12T13:34:48.785Z,96766.00
2022-09-12T13:37:37.581Z,96767.00
2022-09-12T13:40:25.800Z,96762.00
2022-09-12T13:43:15.563Z,96760.00
2022-09-12T13:45:44.978Z,96762.00
2022-09-12T13:48:17.579Z,96753.00
2022-09-12T13:50:56.453Z,96758.00
2022-09-12T13:53:34.859Z,96757.00
2022-09-12T13:56:06.533Z,96755.00
2022-09-12T13:58:36.965Z,96758.00
2022-09-12T14:01:15.260Z,96753.00
2022-09-12T14:04:14.235Z,96739.00
2022-09-12T14:06:50.880Z,96749.00
2022-09-12T14:09:28.735Z,96743.00
2022-09-12T14:11:55.954Z,96736.00
2022-09-12T14:14:29.281Z,96734.00
2022-09-12T14:16:56.406Z,96735.00
2022-09-12T14:19:25.890Z,96739.00
2022-09-12T14:21:53.777Z,96728.00
2022-09-12T14:24:23.258Z,96740.00
2022-09-12T14:26:52.830Z,96730.00
2022-09-12T14:29:21.440Z,96724.00
2022-09-12T14:32:02.524Z,96725.00
2022-09-12T14:34:30.856Z,96726.00
2022-09-12T14:36:58.607Z,96721.00
2022-09-12T14:39:30.846Z,96720.00
2022-09-12T14:42:19.139Z,96727.00
2022-09-12T14:45:01.791Z,96720.00
2022-09-12T14:47:35.569Z,96720.00
2022-09-12T14:50:02.721Z,96725.00
2022-09-12T14:52:34.939Z,96722.00
2022-09-12T14:55:27.382Z,96717.00
2022-09-12T14:58:22.682Z,96720.00
2022-09-12T15:00:58.411Z,96714.00
2022-09-12T15:03:32.311Z,96705.00
2022-09-12T15:06:00.485Z,96707.00
2022-09-12T15:08:27.954Z,96706.00
2022-09-12T15:10:55.627Z,96706.00
2022-09-12T15:13:25.770Z,96711.00
2022-09-12T15:15:54.043Z,96705.00
2022-09-12T15:18:22.839Z,96702.00
2022-09-12T15:20:52.891Z,96707.00
2022-09-12T15:23:29.017Z,96702.00
2022-09-12T15:25:56.241Z,96703.00
2022-09-12T15:28:24.911Z,96702.00
2022-09-12T15:30:54.766Z,96702.00
2022-09-12T15:33:24.151Z,96699.00
2022-09-12T15:35:52.378Z,96690.00
2022-09-12T15:38:24.310Z,96691.00
2022-09-12T15:40:53.974Z,96694.00
2022-09-12T15:43:22.227Z,96693.00
2022-09-12T15:45:51.626Z,96692.00
2022-09-12T15:48:19.365Z,96693.00
2022-09-12T15:50:46.545Z,96689.00
2022-09-12T15:53:17.633Z,96684.00
2022-09-12T15:55:45.727Z,96687.00
2022-09-12T15:58:14.058Z,96688.00
2022-09-12T16:00:41.240Z,96688.00
2022-09-12T16:03:21.927Z,96688.00
2022-09-12T16:05:49.903Z,96673.00
2022-09-12T16:08:17.059Z,96674.00
2022-09-12T16:10:44.501Z,96662.00
2022-09-12T16:13:12.549Z,96671.00
2022-09-12T16:15:40.039Z,96669.00
2022-09-12T16:18:07.763Z,96665.00
2022-09-12T16:20:35.153Z,96674.00
2022-09-12T16:23:02.854Z,96669.00
2022-09-12T16:25:29.998Z,96674.00
2022-09-12T16:27:57.217Z,96669.00
2022-09-12T16:30:24.457Z,96672.00
2022-09-12T16:32:53.026Z,96676.00
2022-09-12T16:35:20.153Z,96682.00
2022-09-12T16:37:47.336Z,96673.00
2022-09-12T16:40:17.732Z,96681.00
2022-09-12T16:42:45.258Z,96678.00
2022-09-12T16:45:13.120Z,96677.00
2022-09-12T16:47:40.487Z,96668.00
2022-09-12T16:50:08.221Z,96673.00
2022-09-12T16:52:35.938Z,96669.00
2022-09-12T16:55:03.109Z,96671.00
2022-09-12T16:57:30.280Z,96676.00
2022-09-12T16:59:57.489Z,96674.00
2022-09-12T17:02:24.691Z,96678.00
2022-09-12T17:04:52.611Z,96673.00
2022-09-12T17:07:19.894Z,96679.00
2022-09-12T17:09:48.041Z,96673.00
2022-09-12T17:12:15.286Z,96675.00
2022-09-12T17:14:42.403Z,96673.00
2022-09-12T17:17:09.535Z,96674.00
2022-09-12T17:19:36.658Z,96673.00
2022-09-12T17:22:03.908Z,96670.00
2022-09-12T17:24:31.295Z,96669.00
2022-09-12T17:26:59.295Z,96675.00
2022-09-12T17:29:26.501Z,96677.00
2022-09-12T17:31:54.953Z,96679.00
2022-09-12T17:34:23.311Z,96677.00
2022-09-12T17:36:50.501Z,96671.00
2022-09-12T17:39:17.727Z,96665.00
2022-09-12T17:41:46.036Z,96671.00
2022-09-12T17:44:14.969Z,96674.00
2022-09-12T17:46:42.862Z,96672.00
2022-09-12T17:49:15.466Z,96683.00
2022-09-12T17:51:43.848Z,96681.00
2022-09-12T17:54:15.953Z,96677.00
2022-09-12T17:56:45.362Z,96674.00
2022-09-12T17:59:16.408Z,96673.00
2022-09-12T18:02:02.063Z,96677.00
2022-09-12T18:04:29.762Z,96670.00
2022-09-12T18:06:57.623Z,96674.00
2022-09-12T18:09:25.119Z,96672.00
2022-09-12T18:11:52.981Z,96675.00
2022-09-12T18:14:20.692Z,96671.00
2022-09-12T18:16:48.540Z,96672.00
2022-09-12T18:19:16.088Z,96674.00
2022-09-12T18:21:43.244Z,96679.00
2022-09-12T18:24:10.903Z,96684.00
2022-09-12T18:26:38.071Z,96684.00
2022-09-12T18:29:05.191Z,96689.00
2022-09-12T18:31:32.395Z,96680.00
2022-09-12T18:34:00.255Z,96683.00
2022-09-12T18:36:27.713Z,96688.00
2022-09-12T18:38:55.161Z,96691.00
2022-09-12T18:41:24.725Z,96684.00
2022-09-12T18:43:59.308Z,96687.00
2022-09-12T18:46:28.161Z,96694.00
2022-09-12T18:48:57.885Z,96690.00
2022-09-12T18:51:31.157Z,96693.00
2022-09-12T18:54:01.103Z,96687.00
2022-09-12T18:56:32.836Z,96693.00
2022-09-12T18:59:01.145Z,96693.00
2022-09-12T19:01:31.593Z,96695.00
2022-09-12T19:04:00.813Z,96693.00
2022-09-12T19:06:30.081Z,96689.00
2022-09-12T19:08:58.652Z,96692.00
2022-09-12T19:11:27.253Z,96685.00
2022-09-12T19:13:56.215Z,96682.00
2022-09-12T19:16:26.761Z,96683.00
2022-09-12T19:18:56.239Z,96694.00
2022-09-12T19:21:29.235Z,96684.00
2022-09-12T19:23:59.632Z,96679.00
2022-09-12T19:26:27.037Z,96686.00
2022-09-12T19:28:55.162Z,96690.00
2022-09-12T19:31:23.329Z,96686.00
2022-09-12T19:33:52.260Z,96676.00
2022-09-12T19:36:43.773Z,96678.00
2022-09-12T19:39:09.152Z,96688.00
2022-09-12T19:41:36.555Z,96685.00
2022-09-12T19:44:04.838Z,96676.00
2022-09-12T19:46:32.252Z,96675.00
2022-09-12T19:48:59.499Z,96670.00
2022-09-12T19:51:26.892Z,96670.00
2022-09-12T19:53:54.098Z,96672.00
2022-09-12T19:56:21.721Z,96675.00
2022-09-12T19:58:55.719Z,96673.00
2022-09-12T20:01:25.621Z,96673.00
2022-09-12T20:03:53.761Z,96674.00
2022-09-12T20:06:21.216Z,96685.00
2022-09-12T20:08:48.403Z,96678.00
2022-09-12T20:11:17.917Z,96683.00
2022-09-12T20:13:45.367Z,96672.00
2022-09-12T20:16:22.464Z,96667.00
2022-09-12T20:18:54.558Z,96672.00
2022-09-12T20:21:30.990Z,96663.00
2022-09-12T20:24:02.814Z,96665.00
2022-09-12T20:26:30.721Z,96664.00
2022-09-12T20:28:57.853Z,96658.00
2022-09-12T20:31:25.388Z,96660.00
2022-09-12T20:33:52.774Z,96667.00
2022-09-12T20:36:21.396Z,96659.00
2022-09-12T20:38:58.349Z,96646.00
2022-09-12T20:41:27.853Z,96654.00
2022-09-12T20:43:56.347Z,96650.00
2022-09-12T20:46:24.831Z,96656.00
2022-09-12T20:48:52.457Z,96660.00
2022-09-12T20:51:20.801Z,96647.00
2022-09-12T20:53:48.382Z,96640.00
2022-09-12T20:56:15.618Z,96632.00
2022-09-12T20:58:44.347Z,96631.00
2022-09-12T21:01:13.767Z,96630.00
2022-09-12T21:03:42.026Z,96630.00
2022-09-12T21:06:10.579Z,96634.00
2022-09-12T21:08:38.338Z,96620.00
2022-09-12T21:11:06.218Z,96627.00
2022-09-12T21:13:33.471Z,96618.00
2022-09-12T21:16:07.771Z,96626.00
2022-09-12T21:18:35.816Z,96615.00
2022-09-12T21:21:04.106Z,96621.00
2022-09-12T21:23:32.109Z,96618.00
2022-09-12T21:26:03.321Z,96623.00
2022-09-12T21:28:30.951Z,96621.00
2022-09-12T21:30:58.171Z,96619.00
2022-09-12T21:33:25.740Z,96625.00
2022-09-12T21:35:52.919Z,96624.00
2022-09-12T21:38:20.769Z,96619.00
2022-09-12T21:40:48.159Z,96625.00
2022-09-12T21:43:15.633Z,96626.00
2022-09-12T21:45:42.887Z,96628.00
2022-09-12T21:48:10.036Z,96624.00
2022-09-12T21:50:37.182Z,96635.00
2022-09-12T21:53:04.390Z,96628.00
2022-09-12T21:55:31.576Z,96634.00
2022-09-12T21:57:58.729Z,96631.00
2022-09-12T22:00:26.039Z,96627.00
2022-09-12T22:02:53.725Z,96630.00
2022-09-12T22:05:22.186Z,96626.00
2022-09-12T22:07:49.360Z,96628.00
2022-09-12T22:10:16.584Z,96631.00
2022-09-12T22:12:46.118Z,96624.00
2022-09-12T22:15:39.090Z,96629.00
2022-09-12T22:18:01.363Z,96629.00
2022-09-12T22:20:28.567Z,96622.00
2022-09-12T22:23:14.102Z,96630.00
2022-09-12T22:25:41.447Z,96626.00
2022-09-12T22:28:08.599Z,96631.00
2022-09-12T22:30:35.937Z,96622.00
2022-09-12T22:33:03.087Z,96624.00
2022-09-12T22:35:30.847Z,96619.00
2022-09-12T22:37:58.039Z,96614.00
2022-09-12T22:40:25.221Z,96617.00
2022-09-12T22:42:53.271Z,96611.00
2022-09-12T22:45:20.492Z,96617.00
2022-09-12T22:47:47.638Z,96609.00
2022-09-12T22:50:14.975Z,96611.00
2022-09-12T22:52:42.163Z,96609.00
2022-09-12T22:55:09.821Z,96613.00
2022-09-12T22:57:37.699Z,96605.00
2022-09-12T23:00:10.452Z,96599.00
2022-09-12T23:02:38.062Z,96600.00
2022-09-12T23:05:06.047Z,96610.00
2022-09-12T23:07:33.443Z,96601.00
2022-09-12T23:10:00.628Z,96607.00
2022-09-12T23:12:27.793Z,96607.00
2022-09-12T23:14:54.943Z,96610.00
2022-09-12T23:17:22.093Z,96596.00
2022-09-12T23:19:49.242Z,96592.00
2022-09-12T23:22:16.400Z,96599.00
2022-09-12T23:24:43.531Z,96595.00
2022-09-12T23:27:10.699Z,96589.00
2022-09-12T23:29:37.828Z,96589.00
2022-09-12T23:32:05.229Z,96585.00
2022-09-12T23:34:33.482Z,96578.00
2022-09-12T23:37:00.610Z,96580.00
2022-09-12T23:39:27.755Z,96581.00
2022-09-12T23:41:55.490Z,96583.00
2022-09-12T23:44:22.601Z,96574.00
2022-09-12T23:46:49.740Z,96579.00
2022-09-12T23:49:16.881Z,96577.00
2022-09-12T23:51:44.675Z,96568.00
2022-09-12T23:54:11.812Z,96571.00
2022-09-12T23:56:38.971Z,96567.00
2022-09-12T23:59:06.165Z,96561.00
